createdAt,value
2023-04-05T00:00:57.102Z,61.86
2023-04-05T00:03:24.414Z,62.37
2023-04-05T00:05:51.135Z,62.40
2023-04-05T00:08:24.120Z,61.66
2023-04-05T00:10:50.876Z,61.29
2023-04-05T00:13:17.325Z,62.21
2023-04-05T00:15:43.789Z,62.39
2023-04-05T00:18:22.172Z,61.56
2023-04-05T00:20:49.106Z,61.32
2023-04-05T00:23:16.937Z,62.44
2023-04-05T00:25:43.356Z,62.87
2023-04-05T00:28:09.867Z,63.10
2023-04-05T00:30:36.486Z,62.70
2023-04-05T00:33:03.149Z,62.90
2023-04-05T00:35:29.651Z,62.11
2023-04-05T00:37:56.222Z,61.91
2023-04-05T00:40:22.635Z,62.15
2023-04-05T00:42:49.050Z,62.18
2023-04-05T00:45:15.680Z,62.04
2023-04-05T00:47:42.166Z,61.97
2023-04-05T00:50:08.864Z,62.07
2023-04-05T00:52:35.456Z,63.64
2023-04-05T00:55:01.930Z,63.40
2023-04-05T00:57:30.371Z,62.81
2023-04-05T00:59:56.812Z,62.41
2023-04-05T01:02:24.810Z,63.00
2023-04-05T01:04:51.384Z,64.03
2023-04-05T01:07:19.983Z,63.84
2023-04-05T01:09:46.421Z,64.65
2023-04-05T01:12:12.852Z,63.82
2023-04-05T01:14:39.281Z,63.44
2023-04-05T01:17:05.698Z,63.28
2023-04-05T01:19:35.316Z,63.83
2023-04-05T01:22:13.861Z,64.35
2023-04-05T01:24:40.365Z,64.71
2023-04-05T01:27:06.865Z,64.27
2023-04-05T01:29:33.297Z,64.72
2023-04-05T01:31:59.740Z,63.50
2023-04-05T01:34:26.252Z,64.22
2023-04-05T01:36:53.156Z,64.44
2023-04-05T01:39:19.642Z,64.68
2023-04-05T01:41:46.157Z,64.45
2023-04-05T01:44:12.585Z,65.02
2023-04-05T01:46:39.114Z,64.31
2023-04-05T01:49:05.625Z,64.26
2023-04-05T01:51:33.344Z,64.30
2023-04-05T01:53:59.955Z,65.02
2023-04-05T01:56:27.618Z,64.76
2023-04-05T01:58:54.102Z,65.55
2023-04-05T02:01:20.586Z,64.98
2023-04-05T02:03:47.188Z,65.56
2023-04-05T02:06:13.669Z,65.78
2023-04-05T02:08:40.086Z,65.75
2023-04-05T02:11:06.536Z,66.13
2023-04-05T02:13:32.989Z,66.00
2023-04-05T02:15:59.471Z,66.04
2023-04-05T02:18:31.536Z,65.54
2023-04-05T02:21:00.190Z,65.75
2023-04-05T02:23:28.107Z,65.51
2023-04-05T02:25:54.557Z,65.79
2023-04-05T02:28:20.987Z,65.69
2023-04-05T02:30:47.414Z,65.70
2023-04-05T02:33:13.843Z,65.49
2023-04-05T02:35:40.297Z,65.17
2023-04-05T02:38:07.323Z,64.77
2023-04-05T02:40:33.821Z,64.88
2023-04-05T02:43:00.303Z,64.85
2023-04-05T02:45:28.068Z,65.46
2023-04-05T02:47:55.010Z,65.38
2023-04-05T02:50:21.542Z,64.93
2023-04-05T02:52:48.336Z,64.95
2023-04-05T02:55:14.767Z,64.79
2023-04-05T02:57:41.373Z,65.44
2023-04-05T03:00:08.838Z,65.09
2023-04-05T03:02:35.331Z,65.21
2023-04-05T03:05:02.619Z,65.29
2023-04-05T03:07:29.730Z,65.83
2023-04-05T03:09:57.003Z,65.36
2023-04-05T03:12:23.425Z,65.10
2023-04-05T03:14:49.876Z,65.85
2023-04-05T03:17:16.374Z,65.55
2023-04-05T03:19:42.869Z,65.81
2023-04-05T03:22:09.316Z,65.95
2023-04-05T03:24:35.784Z,66.47
2023-04-05T03:27:02.625Z,66.59
2023-04-05T03:29:29.055Z,66.41
2023-04-05T03:31:55.763Z,66.64
2023-04-05T03:34:22.500Z,66.02
2023-04-05T03:36:49.941Z,66.33
2023-04-05T03:39:16.373Z,66.68
2023-04-05T03:41:42.820Z,67.19
2023-04-05T03:44:09.241Z,66.82
2023-04-05T03:46:38.160Z,66.88
2023-04-05T03:49:04.731Z,67.09
2023-04-05T03:51:31.392Z,67.30
2023-04-05T03:53:57.808Z,67.57
2023-04-05T03:56:24.240Z,68.10
2023-04-05T03:58:50.726Z,68.39
2023-04-05T04:01:17.205Z,69.08
2023-04-05T04:03:43.643Z,68.29
2023-04-05T04:06:10.160Z,68.26
2023-04-05T04:08:36.704Z,67.88
2023-04-05T04:11:03.191Z,67.18
2023-04-05T04:13:29.635Z,67.14
2023-04-05T04:15:56.211Z,67.36
2023-04-05T04:18:22.714Z,67.30
2023-04-05T04:20:49.395Z,67.00
2023-04-05T04:23:16.438Z,66.34
2023-04-05T04:25:46.365Z,66.94
2023-04-05T04:28:12.984Z,66.00
2023-04-05T04:30:39.445Z,66.46
2023-04-05T04:33:09.076Z,66.77
2023-04-05T04:35:39.305Z,66.60
2023-04-05T04:38:06.068Z,67.47
2023-04-05T04:40:39.134Z,67.49
2023-04-05T04:43:05.657Z,67.42
2023-04-05T04:45:35.112Z,67.11
2023-04-05T04:48:01.749Z,67.52
2023-04-05T04:50:28.275Z,66.83
2023-04-05T04:52:54.734Z,66.43
2023-04-05T04:55:25.436Z,66.51
2023-04-05T04:57:51.887Z,66.23
2023-04-05T05:00:18.404Z,66.16
2023-04-05T05:02:44.849Z,66.68
2023-04-05T05:05:11.539Z,68.31
2023-04-05T05:07:38.003Z,67.41
2023-04-05T05:10:04.477Z,67.73
2023-04-05T05:12:31.802Z,67.79
2023-04-05T05:14:58.340Z,67.34
2023-04-05T05:17:24.953Z,67.65
2023-04-05T05:19:52.260Z,67.21
2023-04-05T05:22:19.428Z,67.91
2023-04-05T05:24:46.792Z,68.19
2023-04-05T05:27:13.227Z,68.66
2023-04-05T05:29:39.712Z,68.16
2023-04-05T05:32:06.670Z,67.51
2023-04-05T05:34:33.611Z,67.88
2023-04-05T05:37:00.113Z,66.80
2023-04-05T05:39:26.552Z,67.81
2023-04-05T05:41:53.156Z,67.55
2023-04-05T05:44:19.588Z,66.89
2023-04-05T05:46:46.318Z,66.45
2023-04-05T05:49:12.870Z,66.19
2023-04-05T05:51:39.348Z,65.34
2023-04-05T05:54:05.916Z,65.17
2023-04-05T05:56:32.343Z,65.28
2023-04-05T05:58:59.717Z,64.92
2023-04-05T06:01:28.494Z,64.23
2023-04-05T06:03:55.349Z,63.67
2023-04-05T06:06:22.312Z,63.59
2023-04-05T06:08:49.702Z,63.09
2023-04-05T06:11:16.160Z,62.47
2023-04-05T06:13:42.604Z,62.36
2023-04-05T06:16:09.082Z,61.48
2023-04-05T06:18:35.553Z,60.62
2023-04-05T06:21:01.968Z,60.35
2023-04-05T06:23:28.374Z,59.14
2023-04-05T06:25:56.808Z,58.72
2023-04-05T06:28:23.235Z,58.67
2023-04-05T06:30:49.730Z,58.66
2023-04-05T06:33:16.139Z,59.27
2023-04-05T06:35:42.591Z,59.34
2023-04-05T06:38:09.646Z,58.25
2023-04-05T06:40:36.352Z,59.32
2023-04-05T06:43:02.763Z,59.17
2023-04-05T06:45:29.190Z,58.68
2023-04-05T06:47:55.615Z,58.76
2023-04-05T06:50:22.106Z,60.17
2023-04-05T06:52:48.572Z,58.78
2023-04-05T06:55:15.001Z,58.87
2023-04-05T06:57:41.544Z,57.88
2023-04-05T07:00:12.042Z,58.32
2023-04-05T07:02:38.571Z,57.89
2023-04-05T07:05:06.099Z,57.32
2023-04-05T07:07:33.567Z,56.92
2023-04-05T07:10:00.020Z,56.95
2023-04-05T07:12:26.454Z,57.14
2023-04-05T07:14:52.870Z,56.41
2023-04-05T07:17:19.291Z,58.64
2023-04-05T07:19:46.458Z,57.79
2023-04-05T07:22:12.926Z,56.36
2023-04-05T07:24:39.366Z,54.75
2023-04-05T07:27:05.804Z,55.38
2023-04-05T07:29:32.250Z,54.90
2023-04-05T07:31:58.894Z,54.88
2023-04-05T07:34:25.646Z,54.86
2023-04-05T07:36:52.265Z,52.52
2023-04-05T07:39:18.802Z,53.94
2023-04-05T07:41:45.214Z,53.08
2023-04-05T07:44:11.647Z,51.88
2023-04-05T07:46:39.473Z,51.17
2023-04-05T07:49:06.027Z,51.87
2023-04-05T07:51:36.360Z,52.51
2023-04-05T07:54:03.342Z,49.33
2023-04-05T07:56:30.897Z,49.08
2023-04-05T07:58:57.377Z,49.84
2023-04-05T08:01:27.958Z,48.99
2023-04-05T08:03:54.459Z,48.99
2023-04-05T08:06:20.934Z,51.79
2023-04-05T08:08:47.389Z,50.75
2023-04-05T08:11:13.814Z,50.11
2023-04-05T08:13:44.002Z,48.43
2023-04-05T08:16:10.677Z,48.24
2023-04-05T08:18:37.195Z,49.04
2023-04-05T08:21:03.637Z,48.09
2023-04-05T08:23:30.233Z,47.78
2023-04-05T08:25:56.910Z,48.91
2023-04-05T08:28:23.357Z,48.59
2023-04-05T08:30:50.019Z,48.77
2023-04-05T08:33:16.519Z,47.12
2023-04-05T08:35:43.376Z,48.14
2023-04-05T08:38:09.877Z,47.52
2023-04-05T08:40:36.292Z,49.32
2023-04-05T08:43:02.774Z,49.40
2023-04-05T08:45:29.536Z,48.09
2023-04-05T08:47:56.182Z,46.34
2023-04-05T08:50:22.656Z,46.18
2023-04-05T08:52:50.193Z,46.18
2023-04-05T08:55:16.663Z,46.88
2023-04-05T08:57:43.078Z,48.20
2023-04-05T09:00:09.517Z,49.61
2023-04-05T09:02:36.051Z,49.06
2023-04-05T09:05:02.557Z,48.45
2023-04-05T09:07:28.987Z,48.10
2023-04-05T09:09:55.783Z,46.22
2023-04-05T09:12:25.941Z,45.80
2023-04-05T09:14:52.369Z,47.35
2023-04-05T09:17:19.469Z,47.77
2023-04-05T09:19:45.941Z,47.05
2023-04-05T09:22:12.438Z,47.72
2023-04-05T09:24:42.217Z,48.09
2023-04-05T09:27:08.919Z,48.67
2023-04-05T09:29:35.700Z,47.46
2023-04-05T09:32:03.083Z,47.97
2023-04-05T09:34:29.505Z,47.14
2023-04-05T09:36:55.936Z,46.93
2023-04-05T09:39:23.487Z,46.43
2023-04-05T09:41:49.881Z,47.04
2023-04-05T09:44:16.314Z,46.12
2023-04-05T09:46:44.003Z,46.42
2023-04-05T09:49:10.585Z,47.18
2023-04-05T09:51:37.047Z,47.54
2023-04-05T09:54:03.557Z,48.55
2023-04-05T09:56:29.987Z,48.05
2023-04-05T09:58:56.614Z,45.84
2023-04-05T10:01:23.439Z,45.39
2023-04-05T10:03:50.211Z,46.13
2023-04-05T10:06:17.392Z,47.09
2023-04-05T10:08:43.851Z,47.70
2023-04-05T10:11:10.919Z,45.44
2023-04-05T10:13:37.333Z,45.75
2023-04-05T10:16:03.790Z,44.04
2023-04-05T10:18:30.429Z,44.86
2023-04-05T10:20:56.911Z,44.64
2023-04-05T10:23:23.368Z,43.59
2023-04-05T10:25:52.290Z,42.71
2023-04-05T10:28:19.562Z,43.56
2023-04-05T10:30:46.238Z,41.97
2023-04-05T10:33:12.717Z,40.54
2023-04-05T10:35:39.318Z,41.54
2023-04-05T10:38:05.939Z,42.60
2023-04-05T10:40:32.360Z,41.37
2023-04-05T10:42:58.903Z,40.07
2023-04-05T10:45:25.349Z,40.86
2023-04-05T10:47:51.880Z,41.07
2023-04-05T10:50:18.378Z,42.13
2023-04-05T10:52:44.932Z,42.19
2023-04-05T10:55:11.677Z,43.07
2023-04-05T10:57:38.090Z,44.21
2023-04-05T11:00:04.532Z,43.36
2023-04-05T11:02:31.034Z,40.99
2023-04-05T11:04:57.803Z,42.78
2023-04-05T11:07:24.235Z,43.18
2023-04-05T11:09:51.044Z,43.62
2023-04-05T11:12:17.460Z,43.77
2023-04-05T11:14:44.743Z,44.03
2023-04-05T11:17:11.290Z,43.41
2023-04-05T11:19:37.834Z,42.70
2023-04-05T11:22:04.295Z,44.14
2023-04-05T11:24:31.841Z,45.28
2023-04-05T11:26:59.594Z,44.27
2023-04-05T11:29:26.113Z,43.48
2023-04-05T11:31:52.537Z,43.84
2023-04-05T11:34:18.952Z,43.74
2023-04-05T11:36:48.436Z,43.09
2023-04-05T11:39:14.899Z,41.72
2023-04-05T11:41:41.328Z,43.21
2023-04-05T11:44:07.777Z,42.47
2023-04-05T11:46:34.321Z,42.72
2023-04-05T11:49:00.901Z,44.38
2023-04-05T11:51:29.304Z,43.57
2023-04-05T11:53:55.776Z,44.49
2023-04-05T11:56:22.498Z,44.17
2023-04-05T11:58:49.068Z,44.93
2023-04-05T12:01:15.794Z,44.43
2023-04-05T12:03:42.276Z,43.96
2023-04-05T12:06:08.829Z,44.57
2023-04-05T12:08:35.244Z,42.78
2023-04-05T12:11:01.672Z,42.15
2023-04-05T12:13:28.778Z,41.99
2023-04-05T12:15:55.266Z,43.14
2023-04-05T12:18:21.721Z,41.37
2023-04-05T12:20:48.152Z,40.44
2023-04-05T12:23:14.634Z,43.04
2023-04-05T12:25:43.079Z,42.53
2023-04-05T12:28:09.925Z,42.76
2023-04-05T12:30:39.454Z,42.43
2023-04-05T12:33:07.968Z,43.24
2023-04-05T12:35:35.394Z,42.64
2023-04-05T12:38:02.321Z,43.60
2023-04-05T12:40:31.079Z,41.35
2023-04-05T12:42:57.562Z,42.11
2023-04-05T12:45:24.085Z,42.00
2023-04-05T12:47:50.987Z,42.25
2023-04-05T12:50:17.544Z,42.93
2023-04-05T12:52:44.043Z,42.83
2023-04-05T12:55:10.521Z,43.31
2023-04-05T12:57:36.930Z,41.80
2023-04-05T13:00:03.376Z,42.24
2023-04-05T13:02:29.928Z,41.46
2023-04-05T13:04:56.592Z,41.99
2023-04-05T13:07:23.018Z,41.21
2023-04-05T13:09:49.453Z,40.90
2023-04-05T13:12:15.866Z,41.82
2023-04-05T13:14:42.323Z,41.52
2023-04-05T13:17:08.969Z,41.77
2023-04-05T13:19:35.578Z,40.71
2023-04-05T13:22:02.061Z,40.82
2023-04-05T13:24:28.506Z,40.89
2023-04-05T13:26:54.929Z,40.43
2023-04-05T13:29:21.365Z,40.29
2023-04-05T13:31:47.796Z,40.16
2023-04-05T13:34:14.232Z,40.62
2023-04-05T13:36:40.818Z,41.14
2023-04-05T13:39:07.306Z,40.79
2023-04-05T13:41:33.714Z,41.03
2023-04-05T13:44:01.963Z,42.25
2023-04-05T13:46:29.625Z,42.31
2023-04-05T13:48:56.214Z,43.32
2023-04-05T13:51:23.185Z,43.06
2023-04-05T13:53:49.621Z,44.38
2023-04-05T13:56:16.086Z,45.50
2023-04-05T13:58:42.556Z,46.15
2023-04-05T14:01:09.014Z,45.14
2023-04-05T14:03:35.593Z,44.35
2023-04-05T14:06:02.127Z,44.74
2023-04-05T14:08:28.626Z,44.06
2023-04-05T14:10:55.051Z,44.30
2023-04-05T14:13:21.649Z,45.70
2023-04-05T14:15:48.164Z,45.53
2023-04-05T14:18:14.621Z,45.35
2023-04-05T14:20:41.391Z,44.14
2023-04-05T14:23:08.127Z,42.99
2023-04-05T14:25:34.687Z,43.63
2023-04-05T14:28:01.313Z,44.50
2023-04-05T14:30:27.727Z,45.23
2023-04-05T14:32:54.216Z,45.33
2023-04-05T14:35:20.692Z,44.28
2023-04-05T14:37:47.123Z,45.30
2023-04-05T14:40:13.546Z,44.60
2023-04-05T14:42:48.585Z,44.13
2023-04-05T14:45:16.727Z,45.28
2023-04-05T14:47:43.245Z,44.72
2023-04-05T14:50:09.731Z,44.67
2023-04-05T14:52:36.320Z,45.22
2023-04-05T14:55:02.822Z,45.52
2023-04-05T14:57:29.235Z,45.75
2023-04-05T14:59:56.032Z,45.55
2023-04-05T15:02:22.497Z,46.00
2023-04-05T15:04:48.982Z,45.80
2023-04-05T15:07:15.547Z,45.99
2023-04-05T15:09:43.188Z,46.44
2023-04-05T15:12:09.620Z,46.26
2023-04-05T15:14:36.247Z,45.91
2023-04-05T15:17:02.765Z,47.18
2023-04-05T15:19:30.744Z,47.43
2023-04-05T15:21:57.280Z,47.47
2023-04-05T15:24:23.774Z,48.36
2023-04-05T15:26:50.287Z,49.09
2023-04-05T15:29:16.732Z,50.71
2023-04-05T15:31:43.185Z,48.94
2023-04-05T15:34:09.607Z,47.64
2023-04-05T15:36:36.377Z,47.08
2023-04-05T15:39:02.817Z,46.71
2023-04-05T15:41:29.227Z,46.10
2023-04-05T15:43:55.721Z,45.17
2023-04-05T15:46:22.232Z,43.70
2023-04-05T15:48:48.877Z,44.33
2023-04-05T15:51:15.517Z,43.33
2023-04-05T15:53:41.982Z,43.54
2023-04-05T15:56:08.457Z,43.93
2023-04-05T15:58:36.889Z,43.79
2023-04-05T16:01:03.337Z,44.33
2023-04-05T16:03:29.828Z,42.27
2023-04-05T16:05:56.369Z,42.80
2023-04-05T16:08:22.815Z,43.10
2023-04-05T16:10:49.244Z,42.29
2023-04-05T16:13:15.990Z,42.36
2023-04-05T16:15:42.492Z,44.14
2023-04-05T16:18:10.178Z,42.10
2023-04-05T16:20:36.638Z,43.33
2023-04-05T16:23:03.086Z,43.11
2023-04-05T16:25:29.650Z,44.03
2023-04-05T16:27:56.234Z,44.35
2023-04-05T16:30:22.646Z,44.21
2023-04-05T16:32:49.090Z,44.96
2023-04-05T16:35:15.928Z,44.70
2023-04-05T16:37:43.089Z,44.95
2023-04-05T16:40:10.655Z,45.80
2023-04-05T16:42:37.749Z,46.33
2023-04-05T16:45:04.184Z,46.94
2023-04-05T16:47:30.654Z,45.31
2023-04-05T16:49:57.137Z,44.86
2023-04-05T16:52:23.612Z,44.49
2023-04-05T16:54:50.056Z,44.53
2023-04-05T16:57:16.491Z,45.21
2023-04-05T16:59:43.036Z,46.64
2023-04-05T17:02:09.570Z,46.38
2023-04-05T17:04:37.685Z,47.31
2023-04-05T17:07:04.213Z,47.35
2023-04-05T17:09:30.718Z,48.97
2023-04-05T17:11:57.174Z,48.29
2023-04-05T17:14:23.690Z,48.47
2023-04-05T17:16:50.106Z,47.66
2023-04-05T17:19:17.120Z,48.12
2023-04-05T17:21:45.634Z,48.10
2023-04-05T17:24:12.048Z,46.63
2023-04-05T17:26:38.516Z,45.34
2023-04-05T17:29:05.212Z,45.88
2023-04-05T17:31:33.559Z,45.07
2023-04-05T17:34:00.208Z,45.12
2023-04-05T17:36:27.607Z,45.33
2023-04-05T17:38:54.100Z,44.58
2023-04-05T17:41:20.515Z,45.17
2023-04-05T17:43:47.028Z,45.19
2023-04-05T17:46:15.145Z,45.25
2023-04-05T17:48:41.678Z,45.76
2023-04-05T17:51:08.269Z,46.35
2023-04-05T17:53:34.699Z,45.30
2023-04-05T17:56:01.285Z,44.50
2023-04-05T17:58:30.294Z,44.68
2023-04-05T18:00:57.108Z,45.65
2023-04-05T18:03:24.094Z,43.95
2023-04-05T18:05:51.499Z,45.89
2023-04-05T18:08:17.926Z,45.49
2023-04-05T18:10:44.380Z,45.25
2023-04-05T18:13:10.889Z,46.53
2023-04-05T18:15:37.319Z,45.81
2023-04-05T18:18:03.782Z,45.54
2023-04-05T18:20:30.422Z,46.67
2023-04-05T18:22:57.416Z,48.63
2023-04-05T18:25:23.941Z,48.92
2023-04-05T18:27:50.405Z,48.79
2023-04-05T18:30:16.826Z,47.76
2023-04-05T18:32:43.334Z,49.21
2023-04-05T18:35:09.905Z,48.21
2023-04-05T18:37:36.709Z,49.10
2023-04-05T18:40:03.155Z,47.45
2023-04-05T18:42:29.622Z,48.76
2023-04-05T18:44:56.184Z,47.85
2023-04-05T18:47:22.669Z,48.22
2023-04-05T18:49:49.217Z,48.41
2023-04-05T18:52:17.490Z,48.01
2023-04-05T18:54:44.004Z,48.50
2023-04-05T18:57:10.434Z,48.84
2023-04-05T18:59:36.934Z,50.81
2023-04-05T19:02:05.225Z,51.36
2023-04-05T19:04:31.774Z,51.16
2023-04-05T19:06:58.190Z,52.18
2023-04-05T19:09:24.689Z,51.99
2023-04-05T19:11:51.127Z,51.99
2023-04-05T19:14:17.561Z,51.67
2023-04-05T19:16:44.017Z,51.01
2023-04-05T19:19:10.481Z,50.18
2023-04-05T19:21:36.994Z,50.43
2023-04-05T19:24:03.445Z,50.90
2023-04-05T19:26:29.863Z,51.77
2023-04-05T19:28:56.360Z,53.01
2023-04-05T19:31:22.926Z,53.07
2023-04-05T19:33:50.444Z,52.05
2023-04-05T19:36:17.054Z,52.29
2023-04-05T19:38:43.563Z,52.51
2023-04-05T19:41:11.348Z,51.41
2023-04-05T19:43:39.616Z,51.27
2023-04-05T19:46:06.537Z,51.79
2023-04-05T19:48:32.987Z,51.01
2023-04-05T19:51:22.968Z,50.83
2023-04-05T19:53:49.656Z,51.86
2023-04-05T19:56:16.523Z,51.01
2023-04-05T19:58:43.089Z,50.99
2023-04-05T20:04:12.457Z,52.26
2023-04-05T20:06:39.094Z,52.33
2023-04-05T20:09:05.755Z,52.83
2023-04-05T20:11:33.148Z,52.94
2023-04-05T20:14:01.225Z,53.23
2023-04-05T20:16:27.862Z,53.28
2023-04-05T20:18:54.466Z,53.90
2023-04-05T20:21:21.140Z,53.99
2023-04-05T20:23:47.665Z,54.35
2023-04-05T20:26:15.170Z,54.66
2023-04-05T20:28:42.953Z,54.11
2023-04-05T20:31:09.467Z,54.84
2023-04-05T20:33:36.304Z,54.68
2023-04-05T20:36:10.120Z,54.58
2023-04-05T20:38:36.659Z,54.74
2023-04-05T20:41:03.134Z,54.95
2023-04-05T20:43:31.409Z,54.55
2023-04-05T20:45:58.051Z,55.14
2023-04-05T20:48:24.476Z,55.11
2023-04-05T20:50:50.987Z,54.69
2023-04-05T20:53:17.436Z,54.38
2023-04-05T20:55:44.205Z,54.98
2023-04-05T20:58:10.611Z,55.38
2023-04-05T21:00:37.424Z,55.37
2023-04-05T21:03:03.985Z,55.52
2023-04-05T21:05:30.485Z,55.89
2023-04-05T21:07:57.570Z,56.18
2023-04-05T21:10:24.135Z,56.54
2023-04-05T21:12:51.399Z,56.74
2023-04-05T21:15:19.253Z,57.64
2023-04-05T21:17:45.881Z,57.74
2023-04-05T21:20:12.333Z,58.22
2023-04-05T21:22:38.756Z,58.76
2023-04-05T21:25:08.206Z,59.07
2023-04-05T21:27:34.625Z,59.02
2023-04-05T21:30:01.052Z,59.21
2023-04-05T21:32:27.513Z,59.67
2023-04-05T21:34:54.000Z,60.17
2023-04-05T21:37:20.640Z,61.04
2023-04-05T21:39:47.071Z,62.00
2023-04-05T21:42:13.477Z,63.20
2023-04-05T21:44:39.950Z,63.69
2023-04-05T21:47:06.533Z,64.37
2023-04-05T21:49:32.984Z,65.05
2023-04-05T21:51:59.389Z,65.81
2023-04-05T21:54:25.900Z,66.25
2023-04-05T21:56:52.306Z,65.79
2023-04-05T21:59:18.752Z,65.75
2023-04-05T22:01:45.249Z,66.01
2023-04-05T22:04:11.727Z,67.00
2023-04-05T22:06:38.363Z,66.88
2023-04-05T22:09:04.782Z,66.69
2023-04-05T22:11:31.237Z,67.44
2023-04-05T22:13:57.644Z,67.20
2023-04-05T22:16:24.094Z,67.12
2023-04-05T22:18:50.572Z,67.46
2023-04-05T22:21:17.002Z,68.01
2023-04-05T22:23:43.444Z,68.68
2023-04-05T22:26:09.902Z,69.11
2023-04-05T22:28:36.332Z,69.84
2023-04-05T22:31:02.736Z,69.43
2023-04-05T22:33:29.214Z,69.74
2023-04-05T22:35:55.879Z,70.36
2023-04-05T22:38:22.379Z,70.06
2023-04-05T22:40:49.065Z,69.97
2023-04-05T22:43:15.650Z,70.08
2023-04-05T22:45:42.115Z,70.14
2023-04-05T22:48:08.598Z,70.12
2023-04-05T22:50:35.083Z,70.66
2023-04-05T22:53:01.499Z,70.61
2023-04-05T22:55:28.028Z,70.97
2023-04-05T22:57:54.472Z,71.03
2023-04-05T23:00:20.893Z,71.29
2023-04-05T23:02:47.357Z,72.20
2023-04-05T23:05:13.801Z,72.56
2023-04-05T23:07:40.406Z,73.00
2023-04-05T23:10:06.904Z,72.65
2023-04-05T23:12:33.367Z,72.82
2023-04-05T23:15:00.013Z,73.01
2023-04-05T23:17:26.803Z,73.17
2023-04-05T23:19:53.210Z,72.72
2023-04-05T23:22:19.681Z,73.00
2023-04-05T23:24:46.173Z,73.80
2023-04-05T23:27:12.597Z,73.66
2023-04-05T23:29:39.036Z,73.56
2023-04-05T23:32:06.997Z,73.56
2023-04-05T23:34:33.471Z,73.53
2023-04-05T23:36:59.911Z,74.04
2023-04-05T23:39:26.328Z,73.95
2023-04-05T23:41:52.771Z,74.33
2023-04-05T23:44:19.186Z,74.13
2023-04-05T23:46:45.712Z,74.45
2023-04-05T23:49:12.172Z,74.49
2023-04-05T23:51:38.634Z,74.90
2023-04-05T23:54:05.079Z,74.92
2023-04-05T23:56:31.950Z,74.91
2023-04-05T23:58:58.461Z,75.90
